KPTN/PTN METAR and TAF weather

Enter ICAO airport designator
Station Type Date Time Source
KPTN METAR 2019/04/22 23:56 UTC NOAA

KPTN 222356Z AUTO 14005KT 10SM SCT036 22/17 A3012 RMK AO2 SLP200 T02220167 10256 20222 56005


Station Type Date Time Source
KPTN Decoded METAR 2019/04/22 23:56 UTC NOAA

Patterson Memorial, LA, United States (KPTN) 29-43N 091-20W
Apr 22, 2019 - 07:56 PM EDT / 2019.04.22 2356 UTC
Wind: from the SE (140 degrees) at 6 MPH (5 KT):0
Visibility: 10 mile(s):0
Sky conditions: partly cloudy
Temperature: 72.0 F (22.2 C)
Dew Point: 62.1 F (16.7 C)
Relative Humidity: 71%
Pressure (altimeter): 30.12 in. Hg (1019 hPa)
Pressure tendency: 0.01 inches (0.5 hPa) lower than three hours ago
ob: KPTN 222356Z AUTO 14005KT 10SM SCT036 22/17 A3012 RMK AO2 SLP200 T02220167 10256 20222 56005
cycle: 0

Station Type Date Time Source
KPTN TAF UTC NOAA

Error!

Example: see airport list